Surface Preassure
0:00 UTC
12:00 UTC (Click for larger versions)
Andrewsfield Outlook

Current time:


  03:18:19am (GMT)      03:18:19am (UTC)


Headline: Dry, sunny and feeling hot by afternoon.

Today: Any early morning cloud affecting Pennines will rapidly clear, leading to a dry day with plenty of sunshine. Feeling hot by the afternoon with southerly winds, perhaps turning cooler near some coasts if an onshore breeze develops later. Maximum Temperature 32C.

Tonight: Most areas starting dry and remaining noticeably warm and muggy overnight. Chance of thunderstorms moving across some parts during the early hours of Wednesday morning. Minimum Temperature 19C.

Wednesday: Any early morning storms clearing across the North Sea, then largely sunny and feeling hot and humid by the afternoon. Perhaps turning cloudier later. Maximum Temperature 30C.

Outlook for Thursday to Saturday: Remaining very warm and humid for Thursday and Friday with a risk of showers or thunderstorms. Some uncertainty for Saturday with further thundery showers or rain, but sunshine is likely.

Nearby METAR/TAF

Stansted (EGSS)


Current conditions: MVFR

METAR: EGSS 230250Z 19002KT 5000 BR NSC 16/16 Q1021

TAF: TAF AMD EGSS 222311Z 2300/2406 VRB04KT 9999 FEW030 BECMG 2300/2303 7000 PROB40 2302/2304 2000 BR PROB30 2304/2306 0300 FG VV/// BECMG 2306/2309 9999 BECMG 2308/2311 12010KT PROB30 TEMPO 2322/2405 09015G25KT 5000 SHRA PROB30 2405/2406 8000

Southend (EGMC)


Current conditions: MVFR

METAR: EGMC 230250Z 00000KT 8000 NSC 15/15 Q1021

TAF: TAF EGMC 230156Z 2303/2312 VRB03KT 9999 FEW030 PROB40 TEMPO 2303/2307 6000

RAF Wattisham (EGUW)


Current conditions: VFR

METAR: EGUW 230250Z AUTO 14004KT 9999 NCD 19/17 Q1021

TAF: